sensor_id;sensor_type;location;lat;lon;timestamp;pressure;altitude;pressure_sealevel;temperature;humidity
26635;BME280;14490;54.208;37.686;2022-08-05T00:00:29;99620.81;;;22.67;87.41
26635;BME280;14490;54.208;37.686;2022-08-05T00:02:56;99629.69;;;22.69;87.49
26635;BME280;14490;54.208;37.686;2022-08-05T00:05:24;99574.72;;;22.35;87.52
26635;BME280;14490;54.208;37.686;2022-08-05T00:07:52;99631.41;;;22.70;87.79
26635;BME280;14490;54.208;37.686;2022-08-05T00:10:21;99628.75;;;22.62;87.99
26635;BME280;14490;54.208;37.686;2022-08-05T00:12:49;99629.53;;;22.56;88.22
26635;BME280;14490;54.208;37.686;2022-08-05T00:15:16;99610.91;;;22.45;88.30
26635;BME280;14490;54.208;37.686;2022-08-05T00:17:44;99555.78;;;22.12;88.09
26635;BME280;14490;54.208;37.686;2022-08-05T00:20:11;99615.75;;;22.43;88.55
26635;BME280;14490;54.208;37.686;2022-08-05T00:22:39;99607.91;;;22.40;88.56
26635;BME280;14490;54.208;37.686;2022-08-05T00:25:07;99637.31;;;22.53;88.47
26635;BME280;14490;54.208;37.686;2022-08-05T00:27:36;99634.16;;;22.49;88.55
26635;BME280;14490;54.208;37.686;2022-08-05T00:30:04;99574.31;;;22.10;88.44
26635;BME280;14490;54.208;37.686;2022-08-05T00:32:32;99631.13;;;22.44;88.63
26635;BME280;14490;54.208;37.686;2022-08-05T00:35:00;99616.06;;;22.33;88.74
26635;BME280;14490;54.208;37.686;2022-08-05T00:37:28;99631.53;;;22.41;88.91
26635;BME280;14490;54.208;37.686;2022-08-05T00:39:55;99614.63;;;22.38;88.60
26635;BME280;14490;54.208;37.686;2022-08-05T00:42:30;99626.50;;;22.45;88.61
26635;BME280;14490;54.208;37.686;2022-08-05T00:45:01;99629.47;;;22.43;88.67
26635;BME280;14490;54.208;37.686;2022-08-05T00:47:30;99595.91;;;22.20;88.91
26635;BME280;14490;54.208;37.686;2022-08-05T00:49:58;99607.25;;;22.17;89.17
26635;BME280;14490;54.208;37.686;2022-08-05T00:52:25;99623.84;;;22.30;89.12
26635;BME280;14490;54.208;37.686;2022-08-05T00:54:53;99596.13;;;22.18;88.79
26635;BME280;14490;54.208;37.686;2022-08-05T00:57:20;99598.25;;;22.23;88.73
26635;BME280;14490;54.208;37.686;2022-08-05T00:59:48;99614.75;;;22.29;88.84
26635;BME280;14490;54.208;37.686;2022-08-05T01:02:17;99611.16;;;22.29;88.81
26635;BME280;14490;54.208;37.686;2022-08-05T01:04:45;99617.31;;;22.31;88.70
26635;BME280;14490;54.208;37.686;2022-08-05T01:07:12;99631.94;;;22.38;88.71
26635;BME280;14490;54.208;37.686;2022-08-05T01:09:40;99621.41;;;22.42;88.49
26635;BME280;14490;54.208;37.686;2022-08-05T01:12:11;99626.97;;;22.48;88.12
26635;BME280;14490;54.208;37.686;2022-08-05T01:14:46;99623.59;;;22.53;88.12
26635;BME280;14490;54.208;37.686;2022-08-05T01:17:22;99608.16;;;22.45;87.92
26635;BME280;14490;54.208;37.686;2022-08-05T01:20:08;99630.16;;;22.52;87.92
26635;BME280;14490;54.208;37.686;2022-08-05T01:22:56;99638.06;;;22.61;87.71
26635;BME280;14490;54.208;37.686;2022-08-05T01:25:41;99642.69;;;22.61;87.81
26635;BME280;14490;54.208;37.686;2022-08-05T01:28:25;99643.09;;;22.58;87.96
26635;BME280;14490;54.208;37.686;2022-08-05T01:31:06;99618.50;;;22.43;88.16
26635;BME280;14490;54.208;37.686;2022-08-05T01:33:46;99640.50;;;22.56;88.48
26635;BME280;14490;54.208;37.686;2022-08-05T01:36:17;99611.06;;;22.37;88.74
26635;BME280;14490;54.208;37.686;2022-08-05T01:38:46;99634.16;;;22.49;88.93
26635;BME280;14490;54.208;37.686;2022-08-05T01:41:17;99616.00;;;22.27;89.04
26635;BME280;14490;54.208;37.686;2022-08-05T01:43:50;99630.03;;;22.39;89.21
26635;BME280;14490;54.208;37.686;2022-08-05T01:46:19;99622.59;;;22.32;89.26
26635;BME280;14490;54.208;37.686;2022-08-05T01:48:49;99645.91;;;22.43;89.40
26635;BME280;14490;54.208;37.686;2022-08-05T01:51:18;99635.06;;;22.35;89.43
26635;BME280;14490;54.208;37.686;2022-08-05T01:53:47;99623.00;;;22.29;89.41
26635;BME280;14490;54.208;37.686;2022-08-05T01:56:17;99655.19;;;22.42;89.67
26635;BME280;14490;54.208;37.686;2022-08-05T01:58:46;99614.53;;;22.24;89.03
26635;BME280;14490;54.208;37.686;2022-08-05T02:01:19;99649.69;;;22.42;89.13
26635;BME280;14490;54.208;37.686;2022-08-05T02:03:49;99656.03;;;22.43;89.36
26635;BME280;14490;54.208;37.686;2022-08-05T02:06:18;99660.66;;;22.42;89.29
26635;BME280;14490;54.208;37.686;2022-08-05T02:08:46;99653.28;;;22.43;89.47
26635;BME280;14490;54.208;37.686;2022-08-05T02:11:15;99656.88;;;22.43;89.48
26635;BME280;14490;54.208;37.686;2022-08-05T02:13:49;99640.16;;;22.38;89.40
26635;BME280;14490;54.208;37.686;2022-08-05T02:16:23;99654.78;;;22.45;89.52
26635;BME280;14490;54.208;37.686;2022-08-05T02:18:55;99649.94;;;22.47;89.50
26635;BME280;14490;54.208;37.686;2022-08-05T02:21:30;99648.25;;;22.46;89.64
26635;BME280;14490;54.208;37.686;2022-08-05T02:24:04;99651.19;;;22.45;89.58
26635;BME280;14490;54.208;37.686;2022-08-05T02:26:37;99650.47;;;22.36;89.75
26635;BME280;14490;54.208;37.686;2022-08-05T02:29:09;99641.78;;;22.32;89.78
26635;BME280;14490;54.208;37.686;2022-08-05T02:31:37;99619.41;;;22.08;90.06
26635;BME280;14490;54.208;37.686;2022-08-05T02:34:07;99656.50;;;22.25;90.08
26635;BME280;14490;54.208;37.686;2022-08-05T02:36:41;99662.03;;;22.31;90.14
26635;BME280;14490;54.208;37.686;2022-08-05T02:39:12;99667.31;;;22.33;90.22
26635;BME280;14490;54.208;37.686;2022-08-05T02:41:42;99651.03;;;22.25;90.51
26635;BME280;14490;54.208;37.686;2022-08-05T02:44:13;99657.16;;;22.27;90.39
26635;BME280;14490;54.208;37.686;2022-08-05T02:46:44;99674.69;;;22.32;90.66
26635;BME280;14490;54.208;37.686;2022-08-05T02:49:13;99662.00;;;22.25;91.50
26635;BME280;14490;54.208;37.686;2022-08-05T02:51:42;99678.59;;;22.02;95.99
26635;BME280;14490;54.208;37.686;2022-08-05T02:54:11;99692.66;;;21.63;100.00
26635;BME280;14490;54.208;37.686;2022-08-05T02:56:42;99706.66;;;21.39;100.00
26635;BME280;14490;54.208;37.686;2022-08-05T02:59:11;99679.03;;;20.97;100.00
26635;BME280;14490;54.208;37.686;2022-08-05T03:01:40;99669.00;;;20.75;100.00
26635;BME280;14490;54.208;37.686;2022-08-05T03:04:11;99695.50;;;20.74;100.00
26635;BME280;14490;54.208;37.686;2022-08-05T03:06:41;99712.47;;;20.69;100.00
26635;BME280;14490;54.208;37.686;2022-08-05T03:09:11;99728.09;;;20.61;100.00
26635;BME280;14490;54.208;37.686;2022-08-05T03:11:41;99728.66;;;20.56;100.00
26635;BME280;14490;54.208;37.686;2022-08-05T03:14:10;99738.09;;;20.54;100.00
26635;BME280;14490;54.208;37.686;2022-08-05T03:16:39;99733.47;;;20.54;100.00
26635;BME280;14490;54.208;37.686;2022-08-05T03:19:07;99701.31;;;20.34;100.00
26635;BME280;14490;54.208;37.686;2022-08-05T03:21:35;99721.56;;;20.47;100.00
26635;BME280;14490;54.208;37.686;2022-08-05T03:24:03;99709.63;;;20.40;100.00
26635;BME280;14490;54.208;37.686;2022-08-05T03:26:31;99724.28;;;20.47;100.00
26635;BME280;14490;54.208;37.686;2022-08-05T03:28:59;99742.44;;;20.63;100.00
26635;BME280;14490;54.208;37.686;2022-08-05T03:31:28;99733.94;;;20.58;100.00
26635;BME280;14490;54.208;37.686;2022-08-05T03:33:57;99740.94;;;20.60;100.00
26635;BME280;14490;54.208;37.686;2022-08-05T03:36:25;99722.16;;;20.57;100.00
26635;BME280;14490;54.208;37.686;2022-08-05T03:38:52;99752.41;;;20.79;100.00
26635;BME280;14490;54.208;37.686;2022-08-05T03:41:20;99749.31;;;20.82;100.00
26635;BME280;14490;54.208;37.686;2022-08-05T03:43:47;99735.69;;;20.73;100.00
26635;BME280;14490;54.208;37.686;2022-08-05T03:46:15;99746.44;;;20.75;100.00
26635;BME280;14490;54.208;37.686;2022-08-05T03:48:43;99764.13;;;20.87;100.00
26635;BME280;14490;54.208;37.686;2022-08-05T03:51:16;99765.63;;;20.90;100.00
26635;BME280;14490;54.208;37.686;2022-08-05T03:53:51;99768.09;;;20.85;100.00
26635;BME280;14490;54.208;37.686;2022-08-05T03:56:27;99656.59;;;20.04;100.00
26635;BME280;14490;54.208;37.686;2022-08-05T03:59:00;99765.91;;;20.57;100.00
26635;BME280;14490;54.208;37.686;2022-08-05T04:01:31;99768.81;;;20.56;100.00
26635;BME280;14490;54.208;37.686;2022-08-05T04:04:02;99727.75;;;20.41;100.00
26635;BME280;14490;54.208;37.686;2022-08-05T04:06:33;99768.50;;;20.73;100.00
26635;BME280;14490;54.208;37.686;2022-08-05T04:09:01;99779.41;;;20.82;100.00
26635;BME280;14490;54.208;37.686;2022-08-05T04:11:30;99757.88;;;20.79;100.00
26635;BME280;14490;54.208;37.686;2022-08-05T04:13:59;99778.03;;;21.00;100.00
26635;BME280;14490;54.208;37.686;2022-08-05T04:16:27;99779.19;;;21.06;100.00
26635;BME280;14490;54.208;37.686;2022-08-05T04:18:55;99777.91;;;21.16;100.00
26635;BME280;14490;54.208;37.686;2022-08-05T04:21:22;99777.63;;;21.26;100.00
26635;BME280;14490;54.208;37.686;2022-08-05T04:23:51;99680.97;;;20.73;100.00
26635;BME280;14490;54.208;37.686;2022-08-05T04:26:19;99768.03;;;21.30;100.00
26635;BME280;14490;54.208;37.686;2022-08-05T04:28:47;99771.69;;;21.37;100.00
26635;BME280;14490;54.208;37.686;2022-08-05T04:31:14;99768.13;;;21.37;100.00
26635;BME280;14490;54.208;37.686;2022-08-05T04:33:42;99771.31;;;21.40;100.00
26635;BME280;14490;54.208;37.686;2022-08-05T04:36:09;99781.25;;;21.41;100.00
26635;BME280;14490;54.208;37.686;2022-08-05T04:38:38;99773.50;;;21.30;100.00
26635;BME280;14490;54.208;37.686;2022-08-05T04:41:07;99756.47;;;21.20;100.00
26635;BME280;14490;54.208;37.686;2022-08-05T04:43:35;99777.53;;;21.34;100.00
26635;BME280;14490;54.208;37.686;2022-08-05T04:46:02;99747.13;;;21.14;100.00
26635;BME280;14490;54.208;37.686;2022-08-05T04:48:30;99778.59;;;21.33;100.00
26635;BME280;14490;54.208;37.686;2022-08-05T04:50:58;99760.63;;;21.16;100.00
26635;BME280;14490;54.208;37.686;2022-08-05T04:53:26;99755.06;;;21.09;100.00
26635;BME280;14490;54.208;37.686;2022-08-05T04:55:53;99778.00;;;21.23;100.00
26635;BME280;14490;54.208;37.686;2022-08-05T04:58:22;99730.34;;;20.95;100.00
26635;BME280;14490;54.208;37.686;2022-08-05T05:00:50;99752.59;;;21.14;100.00
26635;BME280;14490;54.208;37.686;2022-08-05T05:03:17;99781.63;;;21.38;100.00
26635;BME280;14490;54.208;37.686;2022-08-05T05:05:45;99783.06;;;21.49;100.00
26635;BME280;14490;54.208;37.686;2022-08-05T05:08:12;99787.03;;;21.61;100.00
26635;BME280;14490;54.208;37.686;2022-08-05T05:10:41;99775.75;;;21.70;100.00
26635;BME280;14490;54.208;37.686;2022-08-05T05:13:11;99774.16;;;21.76;100.00
26635;BME280;14490;54.208;37.686;2022-08-05T05:15:41;99756.69;;;21.62;100.00
26635;BME280;14490;54.208;37.686;2022-08-05T05:18:12;99764.88;;;21.77;100.00
26635;BME280;14490;54.208;37.686;2022-08-05T05:20:41;99751.19;;;21.77;100.00
26635;BME280;14490;54.208;37.686;2022-08-05T05:23:10;99759.50;;;21.84;100.00
26635;BME280;14490;54.208;37.686;2022-08-05T05:25:39;99753.00;;;21.85;100.00
26635;BME280;14490;54.208;37.686;2022-08-05T05:28:08;99773.69;;;22.02;100.00
26635;BME280;14490;54.208;37.686;2022-08-05T05:30:36;99769.91;;;22.03;100.00
26635;BME280;14490;54.208;37.686;2022-08-05T05:33:06;99773.28;;;22.05;100.00
26635;BME280;14490;54.208;37.686;2022-08-05T05:35:34;99757.22;;;22.02;100.00
26635;BME280;14490;54.208;37.686;2022-08-05T05:38:02;99769.69;;;22.19;100.00
26635;BME280;14490;54.208;37.686;2022-08-05T05:40:31;99766.81;;;22.27;100.00
26635;BME280;14490;54.208;37.686;2022-08-05T05:42:59;99755.84;;;22.27;100.00
26635;BME280;14490;54.208;37.686;2022-08-05T05:45:27;99733.91;;;22.27;100.00
26635;BME280;14490;54.208;37.686;2022-08-05T05:47:57;99766.53;;;22.58;100.00
26635;BME280;14490;54.208;37.686;2022-08-05T05:50:26;99737.06;;;22.45;100.00
26635;BME280;14490;54.208;37.686;2022-08-05T05:52:54;99773.72;;;22.80;100.00
26635;BME280;14490;54.208;37.686;2022-08-05T05:55:22;99770.06;;;22.94;100.00
26635;BME280;14490;54.208;37.686;2022-08-05T05:57:49;99771.69;;;23.10;100.00
26635;BME280;14490;54.208;37.686;2022-08-05T06:00:19;99781.31;;;23.27;100.00
26635;BME280;14490;54.208;37.686;2022-08-05T06:02:49;99778.72;;;23.40;100.00
26635;BME280;14490;54.208;37.686;2022-08-05T06:05:16;99741.66;;;23.36;100.00
26635;BME280;14490;54.208;37.686;2022-08-05T06:07:47;99782.69;;;23.72;100.00
26635;BME280;14490;54.208;37.686;2022-08-05T06:10:15;99775.81;;;23.82;100.00
26635;BME280;14490;54.208;37.686;2022-08-05T06:12:46;99765.25;;;23.86;100.00
26635;BME280;14490;54.208;37.686;2022-08-05T06:15:14;99756.19;;;23.92;100.00
26635;BME280;14490;54.208;37.686;2022-08-05T06:17:41;99777.03;;;24.14;100.00
26635;BME280;14490;54.208;37.686;2022-08-05T06:20:09;99770.31;;;24.30;100.00
26635;BME280;14490;54.208;37.686;2022-08-05T06:22:37;99770.09;;;24.38;100.00
26635;BME280;14490;54.208;37.686;2022-08-05T06:25:08;99767.00;;;24.54;99.31
26635;BME280;14490;54.208;37.686;2022-08-05T06:27:37;99760.47;;;24.68;98.40
26635;BME280;14490;54.208;37.686;2022-08-05T06:30:07;99766.03;;;24.94;97.01
26635;BME280;14490;54.208;37.686;2022-08-05T06:32:40;99760.94;;;25.18;96.03
26635;BME280;14490;54.208;37.686;2022-08-05T06:35:08;99762.59;;;25.38;94.61
26635;BME280;14490;54.208;37.686;2022-08-05T06:37:36;99754.53;;;25.63;93.51
26635;BME280;14490;54.208;37.686;2022-08-05T06:40:04;99740.47;;;25.78;92.04
26635;BME280;14490;54.208;37.686;2022-08-05T06:42:35;99718.19;;;25.92;90.39
26635;BME280;14490;54.208;37.686;2022-08-05T06:45:04;99713.22;;;26.07;89.30
26635;BME280;14490;54.208;37.686;2022-08-05T06:47:32;99738.66;;;26.23;88.15
26635;BME280;14490;54.208;37.686;2022-08-05T06:49:59;99750.31;;;26.12;86.64
26635;BME280;14490;54.208;37.686;2022-08-05T06:52:27;99740.47;;;25.84;86.18
26635;BME280;14490;54.208;37.686;2022-08-05T06:54:54;99747.34;;;25.62;85.02
26635;BME280;14490;54.208;37.686;2022-08-05T06:57:23;99706.91;;;25.10;83.81
26635;BME280;14490;54.208;37.686;2022-08-05T06:59:51;99754.97;;;25.34;83.70
26635;BME280;14490;54.208;37.686;2022-08-05T07:02:19;99734.66;;;25.22;83.64
26635;BME280;14490;54.208;37.686;2022-08-05T07:04:46;99725.13;;;25.11;82.23
26635;BME280;14490;54.208;37.686;2022-08-05T07:07:14;99757.53;;;25.29;81.65
26635;BME280;14490;54.208;37.686;2022-08-05T07:09:42;99748.63;;;25.33;81.45
26635;BME280;14490;54.208;37.686;2022-08-05T07:12:10;99750.94;;;25.43;81.30
26635;BME280;14490;54.208;37.686;2022-08-05T07:14:59;99749.47;;;25.27;80.99
26635;BME280;14490;54.208;37.686;2022-08-05T07:17:45;99607.16;;;24.36;81.22
26635;BME280;14490;54.208;37.686;2022-08-05T07:20:12;99743.97;;;25.34;81.07
26635;BME280;14490;54.208;37.686;2022-08-05T07:22:40;99754.56;;;25.43;81.00
26635;BME280;14490;54.208;37.686;2022-08-05T07:25:08;99728.72;;;25.25;81.45
26635;BME280;14490;54.208;37.686;2022-08-05T07:27:36;99725.34;;;25.23;82.35
26635;BME280;14490;54.208;37.686;2022-08-05T07:30:06;99727.44;;;25.27;81.72
26635;BME280;14490;54.208;37.686;2022-08-05T07:32:35;99746.91;;;25.39;80.47
26635;BME280;14490;54.208;37.686;2022-08-05T07:35:06;99749.47;;;25.40;78.71
26635;BME280;14490;54.208;37.686;2022-08-05T07:37:34;99745.25;;;25.38;77.20
26635;BME280;14490;54.208;37.686;2022-08-05T07:40:04;99736.31;;;25.36;77.03
26635;BME280;14490;54.208;37.686;2022-08-05T07:42:34;99731.22;;;25.46;77.04
26635;BME280;14490;54.208;37.686;2022-08-05T07:45:01;99735.03;;;25.58;77.04
26635;BME280;14490;54.208;37.686;2022-08-05T07:47:31;99736.06;;;25.70;77.24
26635;BME280;14490;54.208;37.686;2022-08-05T07:49:58;99729.44;;;25.84;77.56
26635;BME280;14490;54.208;37.686;2022-08-05T07:52:26;99722.59;;;25.93;77.76
26635;BME280;14490;54.208;37.686;2022-08-05T07:54:58;99719.63;;;26.01;77.93
26635;BME280;14490;54.208;37.686;2022-08-05T07:57:27;99725.13;;;26.08;78.21
26635;BME280;14490;54.208;37.686;2022-08-05T07:59:55;99706.00;;;26.06;78.42
26635;BME280;14490;54.208;37.686;2022-08-05T08:02:25;99694.09;;;26.13;79.02
26635;BME280;14490;54.208;37.686;2022-08-05T08:04:56;99712.34;;;26.20;78.98
26635;BME280;14490;54.208;37.686;2022-08-05T08:07:27;99675.72;;;25.93;79.60
26635;BME280;14490;54.208;37.686;2022-08-05T08:09:57;99715.91;;;26.27;79.29
26635;BME280;14490;54.208;37.686;2022-08-05T08:12:25;99666.53;;;26.06;77.30
26635;BME280;14490;54.208;37.686;2022-08-05T08:14:53;99685.78;;;26.26;75.46
26635;BME280;14490;54.208;37.686;2022-08-05T08:17:21;99716.41;;;26.49;73.73
26635;BME280;14490;54.208;37.686;2022-08-05T08:19:48;99706.63;;;26.53;71.78
26635;BME280;14490;54.208;37.686;2022-08-05T08:22:23;99684.34;;;26.48;71.10
26635;BME280;14490;54.208;37.686;2022-08-05T08:24:52;99712.41;;;26.70;70.39
26635;BME280;14490;54.208;37.686;2022-08-05T08:27:19;99673.03;;;26.56;69.26
26635;BME280;14490;54.208;37.686;2022-08-05T08:29:47;99695.66;;;26.71;67.50
26635;BME280;14490;54.208;37.686;2022-08-05T08:32:17;99710.06;;;26.73;66.87
26635;BME280;14490;54.208;37.686;2022-08-05T08:34:45;99669.63;;;26.54;66.79
26635;BME280;14490;54.208;37.686;2022-08-05T08:37:12;99655.34;;;26.63;66.91
26635;BME280;14490;54.208;37.686;2022-08-05T08:39:43;99696.50;;;26.96;67.22
26635;BME280;14490;54.208;37.686;2022-08-05T08:42:18;99484.75;;;25.73;67.05
26635;BME280;14490;54.208;37.686;2022-08-05T08:44:47;99656.53;;;26.74;65.71
26635;BME280;14490;54.208;37.686;2022-08-05T08:47:18;99646.84;;;26.65;65.80
26635;BME280;14490;54.208;37.686;2022-08-05T08:49:51;99689.75;;;26.92;65.79
26635;BME280;14490;54.208;37.686;2022-08-05T08:52:22;99614.88;;;26.51;65.67
26635;BME280;14490;54.208;37.686;2022-08-05T08:54:52;99678.25;;;26.95;65.25
26635;BME280;14490;54.208;37.686;2022-08-05T08:57:21;99648.38;;;26.86;64.98
26635;BME280;14490;54.208;37.686;2022-08-05T08:59:49;99686.13;;;27.17;64.46
26635;BME280;14490;54.208;37.686;2022-08-05T09:02:18;99666.19;;;27.14;64.22
26635;BME280;14490;54.208;37.686;2022-08-05T09:04:47;99688.69;;;27.36;63.98
26635;BME280;14490;54.208;37.686;2022-08-05T09:07:14;99641.59;;;27.06;61.20
26635;BME280;14490;54.208;37.686;2022-08-05T09:09:42;99694.00;;;27.38;60.69
26635;BME280;14490;54.208;37.686;2022-08-05T09:12:11;99683.13;;;27.43;59.49
26635;BME280;14490;54.208;37.686;2022-08-05T09:14:39;99611.13;;;26.95;57.64
26635;BME280;14490;54.208;37.686;2022-08-05T09:17:10;99696.03;;;27.49;57.20
26635;BME280;14490;54.208;37.686;2022-08-05T09:19:39;99625.34;;;27.17;56.37
26635;BME280;14490;54.208;37.686;2022-08-05T09:22:06;99689.44;;;27.68;56.56
26635;BME280;14490;54.208;37.686;2022-08-05T09:24:35;99688.03;;;27.77;56.71
26635;BME280;14490;54.208;37.686;2022-08-05T09:27:07;99591.41;;;27.28;56.09
26635;BME280;14490;54.208;37.686;2022-08-05T09:29:41;99612.31;;;27.42;55.38
26635;BME280;14490;54.208;37.686;2022-08-05T09:32:11;99686.31;;;27.94;55.43
26635;BME280;14490;54.208;37.686;2022-08-05T09:34:47;99689.09;;;27.94;54.25
26635;BME280;14490;54.208;37.686;2022-08-05T09:37:21;99652.41;;;27.69;53.44
26635;BME280;14490;54.208;37.686;2022-08-05T09:39:49;99513.25;;;26.84;53.55
26635;BME280;14490;54.208;37.686;2022-08-05T09:42:18;99696.06;;;27.97;53.27
26635;BME280;14490;54.208;37.686;2022-08-05T09:44:49;99633.19;;;27.74;53.18
26635;BME280;14490;54.208;37.686;2022-08-05T09:47:18;99628.88;;;27.78;52.99
26635;BME280;14490;54.208;37.686;2022-08-05T09:49:48;99672.63;;;28.17;50.94
26635;BME280;14490;54.208;37.686;2022-08-05T09:52:28;99671.44;;;28.25;49.93
26635;BME280;14490;54.208;37.686;2022-08-05T09:54:59;99674.25;;;28.37;49.75
26635;BME280;14490;54.208;37.686;2022-08-05T09:57:32;99636.50;;;28.12;49.34
26635;BME280;14490;54.208;37.686;2022-08-05T10:00:06;99640.41;;;28.23;49.20
26635;BME280;14490;54.208;37.686;2022-08-05T10:02:38;99666.59;;;28.50;49.17
26635;BME280;14490;54.208;37.686;2022-08-05T10:05:09;99667.94;;;28.59;49.79
26635;BME280;14490;54.208;37.686;2022-08-05T10:07:43;99665.09;;;28.66;50.20
26635;BME280;14490;54.208;37.686;2022-08-05T10:10:16;99538.34;;;27.97;49.11
26635;BME280;14490;54.208;37.686;2022-08-05T10:12:47;99663.78;;;28.68;47.40
26635;BME280;14490;54.208;37.686;2022-08-05T10:15:23;99658.25;;;28.68;46.06
26635;BME280;14490;54.208;37.686;2022-08-05T10:18:05;99641.63;;;28.68;46.06
26635;BME280;14490;54.208;37.686;2022-08-05T10:20:35;99598.81;;;28.53;47.05
26635;BME280;14490;54.208;37.686;2022-08-05T10:23:04;99665.25;;;28.94;47.12
26635;BME280;14490;54.208;37.686;2022-08-05T10:25:32;99570.84;;;28.43;46.81
26635;BME280;14490;54.208;37.686;2022-08-05T10:28:00;99667.41;;;28.92;45.58
26635;BME280;14490;54.208;37.686;2022-08-05T10:30:30;99504.09;;;27.98;45.21
26635;BME280;14490;54.208;37.686;2022-08-05T10:32:58;99674.78;;;28.98;44.69
26635;BME280;14490;54.208;37.686;2022-08-05T10:35:26;99670.56;;;28.96;44.53
26635;BME280;14490;54.208;37.686;2022-08-05T10:37:54;99666.44;;;28.98;44.81
26635;BME280;14490;54.208;37.686;2022-08-05T10:40:29;99652.72;;;28.92;44.55
26635;BME280;14490;54.208;37.686;2022-08-05T10:43:07;99627.19;;;28.78;44.73
26635;BME280;14490;54.208;37.686;2022-08-05T10:45:39;99608.44;;;28.62;44.49
26635;BME280;14490;54.208;37.686;2022-08-05T10:48:30;99673.22;;;29.02;44.14
26635;BME280;14490;54.208;37.686;2022-08-05T10:51:01;99671.28;;;29.03;44.47
26635;BME280;14490;54.208;37.686;2022-08-05T10:53:38;99666.22;;;29.00;44.90
26635;BME280;14490;54.208;37.686;2022-08-05T10:56:10;99661.66;;;29.05;45.20
26635;BME280;14490;54.208;37.686;2022-08-05T10:59:01;99664.16;;;29.07;45.31
26635;BME280;14490;54.208;37.686;2022-08-05T11:01:34;99664.16;;;29.18;45.86
26635;BME280;14490;54.208;37.686;2022-08-05T11:04:05;99629.81;;;29.08;45.76
26635;BME280;14490;54.208;37.686;2022-08-05T11:07:03;99607.41;;;28.86;45.33
26635;BME280;14490;54.208;37.686;2022-08-05T11:09:41;99659.75;;;29.29;45.35
26635;BME280;14490;54.208;37.686;2022-08-05T11:15:18;99655.50;;;29.38;45.45
26635;BME280;14490;54.208;37.686;2022-08-05T11:17:50;99664.69;;;29.39;44.06
26635;BME280;14490;54.208;37.686;2022-08-05T11:20:38;99552.25;;;28.73;43.62
26635;BME280;14490;54.208;37.686;2022-08-05T11:23:31;99651.41;;;29.41;43.37
26635;BME280;14490;54.208;37.686;2022-08-05T11:26:04;99655.16;;;29.35;42.59
26635;BME280;14490;54.208;37.686;2022-08-05T11:28:42;99654.53;;;29.21;41.35
26635;BME280;14490;54.208;37.686;2022-08-05T11:31:27;99651.41;;;29.17;42.04
26635;BME280;14490;54.208;37.686;2022-08-05T11:34:06;99614.06;;;28.97;41.79
26635;BME280;14490;54.208;37.686;2022-08-05T11:36:44;99630.06;;;29.18;42.44
26635;BME280;14490;54.208;37.686;2022-08-05T11:39:15;99615.22;;;29.12;41.94
26635;BME280;14490;54.208;37.686;2022-08-05T11:42:04;99600.53;;;29.00;40.34
26635;BME280;14490;54.208;37.686;2022-08-05T11:44:36;99630.56;;;29.26;40.48
26635;BME280;14490;54.208;37.686;2022-08-05T11:47:05;99531.88;;;28.79;40.24
26635;BME280;14490;54.208;37.686;2022-08-05T11:49:35;99622.94;;;29.34;39.93
26635;BME280;14490;54.208;37.686;2022-08-05T11:52:03;99551.03;;;28.92;40.71
26635;BME280;14490;54.208;37.686;2022-08-05T11:54:31;99597.03;;;29.28;41.75
26635;BME280;14490;54.208;37.686;2022-08-05T11:57:03;99624.00;;;29.56;42.06
26635;BME280;14490;54.208;37.686;2022-08-05T11:59:31;99562.69;;;29.17;41.76
26635;BME280;14490;54.208;37.686;2022-08-05T12:02:00;99606.94;;;29.36;40.35
26635;BME280;14490;54.208;37.686;2022-08-05T12:04:39;99541.38;;;28.95;39.84
26635;BME280;14490;54.208;37.686;2022-08-05T12:07:08;99617.63;;;29.44;40.25
26635;BME280;14490;54.208;37.686;2022-08-05T12:09:38;99608.50;;;29.32;40.70
26635;BME280;14490;54.208;37.686;2022-08-05T12:12:07;99610.56;;;29.36;40.87
26635;BME280;14490;54.208;37.686;2022-08-05T12:14:36;99626.81;;;29.33;40.95
26635;BME280;14490;54.208;37.686;2022-08-05T12:17:08;99625.38;;;29.30;41.06
26635;BME280;14490;54.208;37.686;2022-08-05T12:19:43;99624.66;;;29.35;41.40
26635;BME280;14490;54.208;37.686;2022-08-05T12:22:12;99619.47;;;29.38;41.44
26635;BME280;14490;54.208;37.686;2022-08-05T12:24:41;99603.06;;;29.25;41.02
26635;BME280;14490;54.208;37.686;2022-08-05T12:27:18;99599.47;;;29.36;41.28
26635;BME280;14490;54.208;37.686;2022-08-05T12:29:57;99622.19;;;29.50;41.53
26635;BME280;14490;54.208;37.686;2022-08-05T12:32:31;99616.91;;;29.37;41.16
26635;BME280;14490;54.208;37.686;2022-08-05T12:35:01;99590.66;;;29.04;41.24
26635;BME280;14490;54.208;37.686;2022-08-05T12:37:30;99631.53;;;29.09;41.18
26635;BME280;14490;54.208;37.686;2022-08-05T12:39:58;99580.56;;;28.75;41.36
26635;BME280;14490;54.208;37.686;2022-08-05T12:42:28;99590.91;;;28.91;41.75
26635;BME280;14490;54.208;37.686;2022-08-05T12:45:00;99612.44;;;29.12;41.24
26635;BME280;14490;54.208;37.686;2022-08-05T12:47:30;99611.66;;;29.23;41.74
26635;BME280;14490;54.208;37.686;2022-08-05T12:49:58;99605.22;;;29.35;41.75
26635;BME280;14490;54.208;37.686;2022-08-05T12:52:37;99545.34;;;29.10;41.77
26635;BME280;14490;54.208;37.686;2022-08-05T12:55:15;99599.13;;;29.61;42.02
26635;BME280;14490;54.208;37.686;2022-08-05T12:57:44;99607.06;;;29.69;41.67
26635;BME280;14490;54.208;37.686;2022-08-05T13:00:19;99582.88;;;29.53;40.62
26635;BME280;14490;54.208;37.686;2022-08-05T13:02:47;99598.03;;;29.62;40.27
26635;BME280;14490;54.208;37.686;2022-08-05T13:05:17;99600.09;;;29.55;39.61
26635;BME280;14490;54.208;37.686;2022-08-05T13:07:45;99484.56;;;28.81;39.40